sensor_id;sensor_type;location;lat;lon;timestamp;pressure;altitude;pressure_sealevel;temperature;humidity
11001;BME280;5553;48.506;8.870;2023-03-31T00:01:54;95905.84;;;7.60;100.00
11001;BME280;5553;48.506;8.870;2023-03-31T00:04:22;95898.31;;;7.79;100.00
11001;BME280;5553;48.506;8.870;2023-03-31T00:06:53;95898.84;;;7.68;100.00
11001;BME280;5553;48.506;8.870;2023-03-31T00:09:21;95893.84;;;7.73;100.00
11001;BME280;5553;48.506;8.870;2023-03-31T00:11:50;95895.84;;;7.71;100.00
11001;BME280;5553;48.506;8.870;2023-03-31T00:14:19;95893.00;;;7.72;100.00
11001;BME280;5553;48.506;8.870;2023-03-31T00:16:48;95886.97;;;7.93;100.00
11001;BME280;5553;48.506;8.870;2023-03-31T00:19:16;95893.25;;;7.99;100.00
11001;BME280;5553;48.506;8.870;2023-03-31T00:21:47;95879.63;;;7.89;100.00
11001;BME280;5553;48.506;8.870;2023-03-31T00:24:18;95888.94;;;7.91;100.00
11001;BME280;5553;48.506;8.870;2023-03-31T00:26:47;95889.59;;;7.93;100.00
11001;BME280;5553;48.506;8.870;2023-03-31T00:29:15;95882.69;;;7.92;100.00
11001;BME280;5553;48.506;8.870;2023-03-31T00:31:43;95884.94;;;7.95;100.00
11001;BME280;5553;48.506;8.870;2023-03-31T00:34:11;95880.41;;;8.11;100.00
11001;BME280;5553;48.506;8.870;2023-03-31T00:36:40;95876.50;;;8.28;100.00
11001;BME280;5553;48.506;8.870;2023-03-31T00:39:12;95861.44;;;8.43;100.00
11001;BME280;5553;48.506;8.870;2023-03-31T00:41:44;95846.88;;;8.41;100.00
11001;BME280;5553;48.506;8.870;2023-03-31T00:44:15;95846.41;;;8.37;100.00
11001;BME280;5553;48.506;8.870;2023-03-31T00:46:51;95848.97;;;8.24;100.00
11001;BME280;5553;48.506;8.870;2023-03-31T00:49:26;95844.50;;;8.18;100.00
11001;BME280;5553;48.506;8.870;2023-03-31T00:51:59;95842.47;;;8.20;100.00
11001;BME280;5553;48.506;8.870;2023-03-31T00:54:30;95841.06;;;8.17;100.00
11001;BME280;5553;48.506;8.870;2023-03-31T00:57:03;95829.00;;;8.01;100.00
11001;BME280;5553;48.506;8.870;2023-03-31T00:59:35;95824.13;;;7.98;100.00
11001;BME280;5553;48.506;8.870;2023-03-31T01:02:05;95818.16;;;8.11;100.00
11001;BME280;5553;48.506;8.870;2023-03-31T01:04:37;95820.53;;;8.06;100.00
11001;BME280;5553;48.506;8.870;2023-03-31T01:07:15;95818.13;;;8.04;100.00
11001;BME280;5553;48.506;8.870;2023-03-31T01:09:47;95823.56;;;8.03;100.00
11001;BME280;5553;48.506;8.870;2023-03-31T01:12:21;95816.34;;;8.12;100.00
11001;BME280;5553;48.506;8.870;2023-03-31T01:14:50;95815.59;;;8.18;100.00
11001;BME280;5553;48.506;8.870;2023-03-31T01:17:20;95822.19;;;8.07;100.00
11001;BME280;5553;48.506;8.870;2023-03-31T01:19:58;95824.69;;;8.22;100.00
11001;BME280;5553;48.506;8.870;2023-03-31T01:22:55;95821.28;;;8.56;100.00
11001;BME280;5553;48.506;8.870;2023-03-31T01:25:52;95791.72;;;9.22;100.00
11001;BME280;5553;48.506;8.870;2023-03-31T01:28:32;95772.88;;;10.05;100.00
11001;BME280;5553;48.506;8.870;2023-03-31T01:31:27;95772.13;;;9.51;100.00
11001;BME280;5553;48.506;8.870;2023-03-31T01:34:25;95782.03;;;9.42;100.00
11001;BME280;5553;48.506;8.870;2023-03-31T01:42:57;95817.41;;;9.00;100.00
11001;BME280;5553;48.506;8.870;2023-03-31T01:45:36;95825.09;;;9.01;100.00
11001;BME280;5553;48.506;8.870;2023-03-31T01:48:13;95827.09;;;8.93;100.00
11001;BME280;5553;48.506;8.870;2023-03-31T01:50:44;95824.88;;;8.96;100.00
11001;BME280;5553;48.506;8.870;2023-03-31T01:53:17;95824.22;;;8.81;100.00
11001;BME280;5553;48.506;8.870;2023-03-31T01:55:59;95837.13;;;8.69;100.00
11001;BME280;5553;48.506;8.870;2023-03-31T01:58:33;95825.03;;;8.88;100.00
11001;BME280;5553;48.506;8.870;2023-03-31T02:01:08;95826.41;;;8.77;100.00
11001;BME280;5553;48.506;8.870;2023-03-31T02:03:42;95829.91;;;8.43;100.00
11001;BME280;5553;48.506;8.870;2023-03-31T02:06:16;95822.91;;;8.29;100.00
11001;BME280;5553;48.506;8.870;2023-03-31T02:08:49;95806.47;;;8.20;100.00
11001;BME280;5553;48.506;8.870;2023-03-31T02:11:23;95801.69;;;8.24;100.00
11001;BME280;5553;48.506;8.870;2023-03-31T02:13:53;95785.47;;;8.14;100.00
11001;BME280;5553;48.506;8.870;2023-03-31T02:16:25;95773.78;;;8.29;100.00
11001;BME280;5553;48.506;8.870;2023-03-31T02:18:57;95766.88;;;8.22;100.00
11001;BME280;5553;48.506;8.870;2023-03-31T02:21:27;95757.41;;;8.21;100.00
11001;BME280;5553;48.506;8.870;2023-03-31T02:23:56;95757.75;;;8.11;100.00
11001;BME280;5553;48.506;8.870;2023-03-31T02:26:30;95731.47;;;8.11;100.00
11001;BME280;5553;48.506;8.870;2023-03-31T02:29:03;95717.53;;;8.11;100.00
11001;BME280;5553;48.506;8.870;2023-03-31T02:31:37;95715.47;;;8.06;100.00
11001;BME280;5553;48.506;8.870;2023-03-31T02:34:08;95717.25;;;7.99;100.00
11001;BME280;5553;48.506;8.870;2023-03-31T02:36:37;95710.34;;;7.91;100.00
11001;BME280;5553;48.506;8.870;2023-03-31T02:39:10;95698.63;;;7.87;100.00
11001;BME280;5553;48.506;8.870;2023-03-31T02:41:44;95693.31;;;7.80;100.00
11001;BME280;5553;48.506;8.870;2023-03-31T02:44:12;95683.00;;;7.79;100.00
11001;BME280;5553;48.506;8.870;2023-03-31T02:46:41;95678.97;;;7.76;100.00
11001;BME280;5553;48.506;8.870;2023-03-31T02:49:10;95669.41;;;7.69;100.00
11001;BME280;5553;48.506;8.870;2023-03-31T02:52:00;95663.56;;;7.67;100.00
11001;BME280;5553;48.506;8.870;2023-03-31T02:54:45;95668.09;;;7.51;100.00
11001;BME280;5553;48.506;8.870;2023-03-31T03:00:37;95669.88;;;7.44;100.00
11001;BME280;5553;48.506;8.870;2023-03-31T03:03:17;95670.50;;;7.46;100.00
11001;BME280;5553;48.506;8.870;2023-03-31T03:05:55;95663.00;;;7.43;100.00
11001;BME280;5553;48.506;8.870;2023-03-31T03:08:35;95658.13;;;7.40;100.00
11001;BME280;5553;48.506;8.870;2023-03-31T03:11:11;95656.91;;;7.36;100.00
11001;BME280;5553;48.506;8.870;2023-03-31T03:13:45;95643.19;;;7.41;100.00
11001;BME280;5553;48.506;8.870;2023-03-31T03:16:21;95629.47;;;7.39;100.00
11001;BME280;5553;48.506;8.870;2023-03-31T03:18:55;95624.19;;;7.32;100.00
11001;BME280;5553;48.506;8.870;2023-03-31T03:21:24;95619.69;;;7.26;100.00
11001;BME280;5553;48.506;8.870;2023-03-31T03:23:52;95621.84;;;7.16;100.00
11001;BME280;5553;48.506;8.870;2023-03-31T03:26:21;95622.44;;;7.18;100.00
11001;BME280;5553;48.506;8.870;2023-03-31T03:28:53;95621.66;;;7.17;100.00
11001;BME280;5553;48.506;8.870;2023-03-31T03:31:24;95612.91;;;7.10;100.00
11001;BME280;5553;48.506;8.870;2023-03-31T03:33:52;95609.75;;;7.15;100.00
11001;BME280;5553;48.506;8.870;2023-03-31T03:36:21;95605.38;;;7.00;100.00
11001;BME280;5553;48.506;8.870;2023-03-31T03:38:49;95596.66;;;6.93;100.00
11001;BME280;5553;48.506;8.870;2023-03-31T03:41:18;95583.16;;;6.96;100.00
11001;BME280;5553;48.506;8.870;2023-03-31T03:43:46;95572.56;;;6.83;100.00
11001;BME280;5553;48.506;8.870;2023-03-31T03:46:14;95574.59;;;6.81;100.00
11001;BME280;5553;48.506;8.870;2023-03-31T03:48:45;95566.44;;;6.69;100.00
11001;BME280;5553;48.506;8.870;2023-03-31T03:51:13;95571.00;;;6.60;100.00
11001;BME280;5553;48.506;8.870;2023-03-31T03:53:42;95562.66;;;6.50;100.00
11001;BME280;5553;48.506;8.870;2023-03-31T03:56:10;95558.03;;;6.52;100.00
11001;BME280;5553;48.506;8.870;2023-03-31T03:58:38;95560.31;;;6.62;100.00
11001;BME280;5553;48.506;8.870;2023-03-31T04:01:06;95540.53;;;6.59;100.00
11001;BME280;5553;48.506;8.870;2023-03-31T04:03:35;95521.09;;;6.47;100.00
11001;BME280;5553;48.506;8.870;2023-03-31T04:06:06;95507.25;;;6.53;100.00
11001;BME280;5553;48.506;8.870;2023-03-31T04:08:34;95504.09;;;6.64;100.00
11001;BME280;5553;48.506;8.870;2023-03-31T04:11:03;95507.72;;;6.92;100.00
11001;BME280;5553;48.506;8.870;2023-03-31T04:13:36;95503.47;;;6.97;100.00
11001;BME280;5553;48.506;8.870;2023-03-31T04:16:06;95496.25;;;6.99;100.00
11001;BME280;5553;48.506;8.870;2023-03-31T04:18:35;95485.91;;;6.91;100.00
11001;BME280;5553;48.506;8.870;2023-03-31T04:21:10;95489.56;;;6.97;100.00
11001;BME280;5553;48.506;8.870;2023-03-31T04:23:40;95487.16;;;6.95;100.00
11001;BME280;5553;48.506;8.870;2023-03-31T04:26:11;95492.19;;;6.97;100.00
11001;BME280;5553;48.506;8.870;2023-03-31T04:28:39;95485.97;;;6.98;100.00
11001;BME280;5553;48.506;8.870;2023-03-31T04:31:13;95496.03;;;6.94;100.00
11001;BME280;5553;48.506;8.870;2023-03-31T04:33:41;95489.16;;;6.93;100.00
11001;BME280;5553;48.506;8.870;2023-03-31T04:36:13;95486.97;;;7.03;100.00
11001;BME280;5553;48.506;8.870;2023-03-31T04:38:45;95479.56;;;7.13;100.00
11001;BME280;5553;48.506;8.870;2023-03-31T04:41:15;95483.63;;;7.16;100.00
11001;BME280;5553;48.506;8.870;2023-03-31T04:43:44;95488.63;;;6.76;100.00
11001;BME280;5553;48.506;8.870;2023-03-31T04:46:12;95492.69;;;6.79;100.00
11001;BME280;5553;48.506;8.870;2023-03-31T04:48:40;95497.56;;;6.82;100.00
11001;BME280;5553;48.506;8.870;2023-03-31T04:51:09;95493.38;;;6.87;100.00
11001;BME280;5553;48.506;8.870;2023-03-31T04:53:42;95480.13;;;7.02;100.00
11001;BME280;5553;48.506;8.870;2023-03-31T04:56:11;95471.25;;;7.03;100.00
11001;BME280;5553;48.506;8.870;2023-03-31T04:58:39;95466.41;;;7.07;100.00
11001;BME280;5553;48.506;8.870;2023-03-31T05:01:09;95470.25;;;7.11;100.00
11001;BME280;5553;48.506;8.870;2023-03-31T05:03:37;95468.47;;;7.11;100.00
11001;BME280;5553;48.506;8.870;2023-03-31T05:06:06;95475.09;;;7.07;100.00
11001;BME280;5553;48.506;8.870;2023-03-31T05:08:35;95479.13;;;7.03;100.00
11001;BME280;5553;48.506;8.870;2023-03-31T05:11:06;95499.72;;;7.06;100.00
11001;BME280;5553;48.506;8.870;2023-03-31T05:13:34;95510.50;;;6.90;100.00
11001;BME280;5553;48.506;8.870;2023-03-31T05:16:06;95479.31;;;7.02;100.00
11001;BME280;5553;48.506;8.870;2023-03-31T05:18:35;95490.63;;;7.02;100.00
11001;BME280;5553;48.506;8.870;2023-03-31T05:21:11;95497.88;;;7.07;100.00
11001;BME280;5553;48.506;8.870;2023-03-31T05:23:40;95490.38;;;6.97;100.00
11001;BME280;5553;48.506;8.870;2023-03-31T05:26:11;95486.53;;;6.93;100.00
11001;BME280;5553;48.506;8.870;2023-03-31T05:28:40;95496.03;;;6.94;100.00
11001;BME280;5553;48.506;8.870;2023-03-31T05:31:09;95488.94;;;6.88;100.00
11001;BME280;5553;48.506;8.870;2023-03-31T05:33:38;95505.63;;;6.87;100.00
11001;BME280;5553;48.506;8.870;2023-03-31T05:36:08;95490.31;;;6.84;100.00
11001;BME280;5553;48.506;8.870;2023-03-31T05:38:37;95508.91;;;6.89;100.00
11001;BME280;5553;48.506;8.870;2023-03-31T05:41:06;95503.66;;;6.89;100.00
11001;BME280;5553;48.506;8.870;2023-03-31T05:43:38;95501.03;;;6.89;100.00
11001;BME280;5553;48.506;8.870;2023-03-31T05:46:08;95491.69;;;6.80;100.00
11001;BME280;5553;48.506;8.870;2023-03-31T05:48:36;95492.75;;;6.85;100.00
11001;BME280;5553;48.506;8.870;2023-03-31T05:51:04;95505.63;;;6.87;100.00
11001;BME280;5553;48.506;8.870;2023-03-31T05:53:33;95511.69;;;6.81;100.00
11001;BME280;5553;48.506;8.870;2023-03-31T05:56:02;95514.53;;;6.86;100.00
11001;BME280;5553;48.506;8.870;2023-03-31T05:58:33;95515.00;;;6.96;100.00
11001;BME280;5553;48.506;8.870;2023-03-31T06:01:06;95504.75;;;7.01;100.00
11001;BME280;5553;48.506;8.870;2023-03-31T06:03:37;95506.97;;;7.04;100.00
11001;BME280;5553;48.506;8.870;2023-03-31T06:06:07;95494.00;;;6.96;100.00
11001;BME280;5553;48.506;8.870;2023-03-31T06:08:37;95493.19;;;6.96;100.00
11001;BME280;5553;48.506;8.870;2023-03-31T06:11:06;95493.66;;;7.06;100.00
11001;BME280;5553;48.506;8.870;2023-03-31T06:13:35;95505.75;;;7.07;100.00
11001;BME280;5553;48.506;8.870;2023-03-31T06:22:43;95503.34;;;7.05;100.00
11001;BME280;5553;48.506;8.870;2023-03-31T06:25:11;95500.91;;;7.04;100.00
11001;BME280;5553;48.506;8.870;2023-03-31T06:27:40;95507.16;;;7.03;100.00
11001;BME280;5553;48.506;8.870;2023-03-31T06:30:09;95523.47;;;6.98;100.00
11001;BME280;5553;48.506;8.870;2023-03-31T06:32:37;95546.84;;;6.93;100.00
11001;BME280;5553;48.506;8.870;2023-03-31T06:35:06;95552.88;;;6.94;100.00
11001;BME280;5553;48.506;8.870;2023-03-31T06:37:35;95573.47;;;6.97;100.00
11001;BME280;5553;48.506;8.870;2023-03-31T06:40:08;95581.94;;;6.92;100.00
11001;BME280;5553;48.506;8.870;2023-03-31T06:42:36;95593.66;;;6.96;100.00
11001;BME280;5553;48.506;8.870;2023-03-31T06:45:05;95604.81;;;7.33;100.00
11001;BME280;5553;48.506;8.870;2023-03-31T06:47:34;95619.34;;;7.70;100.00
11001;BME280;5553;48.506;8.870;2023-03-31T06:50:03;95607.41;;;7.68;100.00
11001;BME280;5553;48.506;8.870;2023-03-31T06:52:31;95617.53;;;7.71;100.00
11001;BME280;5553;48.506;8.870;2023-03-31T06:55:00;95611.09;;;7.73;100.00
11001;BME280;5553;48.506;8.870;2023-03-31T06:57:30;95601.00;;;7.77;100.00
11001;BME280;5553;48.506;8.870;2023-03-31T06:59:59;95575.56;;;7.84;100.00
11001;BME280;5553;48.506;8.870;2023-03-31T07:02:28;97330.81;;;-144.39;100.00
11001;BME280;5553;48.506;8.870;2023-03-31T07:04:56;95561.47;;;7.98;100.00
11001;BME280;5553;48.506;8.870;2023-03-31T07:07:24;61598.09;;;-144.39;100.00
11001;BME280;5553;48.506;8.870;2023-03-31T07:09:52;95433.38;;;8.00;100.00
11001;BME280;5553;48.506;8.870;2023-03-31T07:12:21;95427.72;;;7.97;100.00
11001;BME280;5553;48.506;8.870;2023-03-31T07:14:51;95392.94;;;7.81;100.00
11001;BME280;5553;48.506;8.870;2023-03-31T07:17:20;95393.34;;;7.85;100.00
11001;BME280;5553;48.506;8.870;2023-03-31T07:19:49;95395.00;;;7.79;100.00
11001;BME280;5553;48.506;8.870;2023-03-31T07:22:17;95396.78;;;7.86;100.00
11001;BME280;5553;48.506;8.870;2023-03-31T07:24:46;95389.72;;;7.93;100.00
11001;BME280;5553;48.506;8.870;2023-03-31T07:27:14;95381.03;;;7.92;100.00
11001;BME280;5553;48.506;8.870;2023-03-31T07:29:42;95385.69;;;7.90;100.00
11001;BME280;5553;48.506;8.870;2023-03-31T07:32:13;95385.28;;;7.80;100.00
11001;BME280;5553;48.506;8.870;2023-03-31T07:34:42;95379.63;;;7.83;100.00
11001;BME280;5553;48.506;8.870;2023-03-31T07:37:10;95383.66;;;7.92;100.00
11001;BME280;5553;48.506;8.870;2023-03-31T07:39:38;95381.63;;;8.47;100.00
11001;BME280;5553;48.506;8.870;2023-03-31T07:42:07;95370.13;;;8.22;100.00
11001;BME280;5553;48.506;8.870;2023-03-31T07:44:35;95355.56;;;8.26;100.00
11001;BME280;5553;48.506;8.870;2023-03-31T07:47:04;95359.78;;;8.20;100.00
11001;BME280;5553;48.506;8.870;2023-03-31T07:49:35;95348.28;;;8.28;100.00
11001;BME280;5553;48.506;8.870;2023-03-31T07:52:03;95334.69;;;8.51;100.00
11001;BME280;5553;48.506;8.870;2023-03-31T07:54:32;95329.50;;;9.34;100.00
11001;BME280;5553;48.506;8.870;2023-03-31T07:57:00;95313.91;;;9.64;100.00
11001;BME280;5553;48.506;8.870;2023-03-31T07:59:30;95304.97;;;9.90;100.00
11001;BME280;5553;48.506;8.870;2023-03-31T08:01:59;95284.25;;;9.94;100.00
11001;BME280;5553;48.506;8.870;2023-03-31T08:04:27;95291.97;;;10.14;100.00
11001;BME280;5553;48.506;8.870;2023-03-31T08:06:58;95295.69;;;10.31;100.00
11001;BME280;5553;48.506;8.870;2023-03-31T08:09:26;95291.88;;;10.64;100.00
11001;BME280;5553;48.506;8.870;2023-03-31T08:11:55;95297.28;;;10.87;100.00
11001;BME280;5553;48.506;8.870;2023-03-31T08:14:23;95290.75;;;10.90;100.00
11001;BME280;5553;48.506;8.870;2023-03-31T08:16:51;95295.59;;;10.93;100.00
11001;BME280;5553;48.506;8.870;2023-03-31T08:19:19;95287.03;;;10.79;100.00
11001;BME280;5553;48.506;8.870;2023-03-31T08:21:48;95294.88;;;11.16;100.00
11001;BME280;5553;48.506;8.870;2023-03-31T08:24:19;95282.72;;;11.15;100.00
11001;BME280;5553;48.506;8.870;2023-03-31T08:26:47;95288.81;;;11.15;100.00
11001;BME280;5553;48.506;8.870;2023-03-31T08:29:16;95282.91;;;11.55;100.00
11001;BME280;5553;48.506;8.870;2023-03-31T08:31:44;95279.81;;;11.58;100.00
11001;BME280;5553;48.506;8.870;2023-03-31T08:34:12;95255.50;;;11.56;100.00
11001;BME280;5553;48.506;8.870;2023-03-31T08:36:40;95258.47;;;11.60;100.00
11001;BME280;5553;48.506;8.870;2023-03-31T08:39:09;95256.94;;;11.94;100.00
11001;BME280;5553;48.506;8.870;2023-03-31T08:41:47;95260.13;;;12.31;100.00
11001;BME280;5553;48.506;8.870;2023-03-31T08:44:21;95233.25;;;11.88;100.00
11001;BME280;5553;48.506;8.870;2023-03-31T08:46:53;95230.47;;;11.82;100.00
11001;BME280;5553;48.506;8.870;2023-03-31T08:49:23;95238.06;;;12.02;100.00
11001;BME280;5553;48.506;8.870;2023-03-31T08:51:56;95237.34;;;12.30;100.00
11001;BME280;5553;48.506;8.870;2023-03-31T08:54:30;95244.06;;;11.98;100.00
11001;BME280;5553;48.506;8.870;2023-03-31T08:57:03;95245.03;;;12.44;100.00
11001;BME280;5553;48.506;8.870;2023-03-31T08:59:33;95223.81;;;12.15;100.00
11001;BME280;5553;48.506;8.870;2023-03-31T09:02:10;95216.19;;;12.30;100.00
11001;BME280;5553;48.506;8.870;2023-03-31T09:04:55;95216.81;;;12.21;100.00
11001;BME280;5553;48.506;8.870;2023-03-31T09:07:35;95191.06;;;11.81;100.00
11001;BME280;5553;48.506;8.870;2023-03-31T09:10:21;95186.81;;;11.68;100.00
11001;BME280;5553;48.506;8.870;2023-03-31T09:12:56;95211.94;;;11.47;100.00
11001;BME280;5553;48.506;8.870;2023-03-31T09:15:35;95208.63;;;12.22;100.00
11001;BME280;5553;48.506;8.870;2023-03-31T09:18:14;95212.56;;;11.96;100.00
11001;BME280;5553;48.506;8.870;2023-03-31T09:20:48;95228.84;;;12.17;100.00
11001;BME280;5553;48.506;8.870;2023-03-31T09:23:24;95197.38;;;12.15;100.00
11001;BME280;5553;48.506;8.870;2023-03-31T09:25:55;95183.81;;;12.00;100.00
11001;BME280;5553;48.506;8.870;2023-03-31T09:28:30;95202.00;;;12.08;100.00
11001;BME280;5553;48.506;8.870;2023-03-31T09:31:02;95197.16;;;12.05;100.00
11001;BME280;5553;48.506;8.870;2023-03-31T09:33:36;95187.09;;;12.71;100.00
11001;BME280;5553;48.506;8.870;2023-03-31T09:36:13;95167.19;;;12.68;100.00
11001;BME280;5553;48.506;8.870;2023-03-31T09:38:44;95122.84;;;11.66;98.83
11001;BME280;5553;48.506;8.870;2023-03-31T09:41:14;95137.78;;;11.60;100.00
11001;BME280;5553;48.506;8.870;2023-03-31T09:43:46;95145.34;;;11.22;100.00
11001;BME280;5553;48.506;8.870;2023-03-31T09:46:18;95141.53;;;12.00;100.00
11001;BME280;5553;48.506;8.870;2023-03-31T09:48:52;95119.75;;;11.69;100.00
11001;BME280;5553;48.506;8.870;2023-03-31T09:51:25;95106.63;;;12.38;99.31
11001;BME280;5553;48.506;8.870;2023-03-31T09:53:57;95107.34;;;11.70;99.89
11001;BME280;5553;48.506;8.870;2023-03-31T09:56:43;95090.97;;;12.08;96.24
11001;BME280;5553;48.506;8.870;2023-03-31T09:59:17;95090.72;;;12.67;95.61
11001;BME280;5553;48.506;8.870;2023-03-31T10:01:48;95095.00;;;13.18;95.61
11001;BME280;5553;48.506;8.870;2023-03-31T10:04:21;95070.59;;;13.33;93.35
11001;BME280;5553;48.506;8.870;2023-03-31T10:06:50;95095.88;;;13.80;95.70
11001;BME280;5553;48.506;8.870;2023-03-31T10:09:20;95038.34;;;13.19;89.19
11001;BME280;5553;48.506;8.870;2023-03-31T10:11:54;95027.84;;;12.91;87.25
11001;BME280;5553;48.506;8.870;2023-03-31T10:14:33;95054.66;;;13.28;89.59
11001;BME280;5553;48.506;8.870;2023-03-31T10:17:05;95045.66;;;12.95;89.17
11001;BME280;5553;48.506;8.870;2023-03-31T10:19:35;95005.16;;;12.95;85.04
11001;BME280;5553;48.506;8.870;2023-03-31T10:22:08;95065.84;;;13.74;88.31
11001;BME280;5553;48.506;8.870;2023-03-31T10:24:42;95015.25;;;13.32;84.67
11001;BME280;5553;48.506;8.870;2023-03-31T10:27:19;95019.84;;;13.58;85.06
11001;BME280;5553;48.506;8.870;2023-03-31T10:29:54;94989.50;;;13.49;83.18
11001;BME280;5553;48.506;8.870;2023-03-31T10:32:25;95033.22;;;14.44;86.71
11001;BME280;5553;48.506;8.870;2023-03-31T10:34:54;94963.66;;;14.05;81.53
11001;BME280;5553;48.506;8.870;2023-03-31T10:37:25;94968.97;;;13.83;81.60
11001;BME280;5553;48.506;8.870;2023-03-31T10:39:56;94989.19;;;13.89;83.19
11001;BME280;5553;48.506;8.870;2023-03-31T10:42:26;94964.72;;;13.60;79.95
11001;BME280;5553;48.506;8.870;2023-03-31T10:45:22;94944.66;;;13.64;79.31
11001;BME280;5553;48.506;8.870;2023-03-31T10:47:53;94959.84;;;14.28;79.58
11001;BME280;5553;48.506;8.870;2023-03-31T10:50:26;94909.22;;;13.48;76.58
11001;BME280;5553;48.506;8.870;2023-03-31T10:53:02;94934.59;;;12.84;78.75
11001;BME280;5553;48.506;8.870;2023-03-31T10:55:35;94932.81;;;13.28;78.56
11001;BME280;5553;48.506;8.870;2023-03-31T10:58:17;94976.00;;;13.12;81.60
11001;BME280;5553;48.506;8.870;2023-03-31T11:01:03;94930.13;;;12.67;79.31
11001;BME280;5553;48.506;8.870;2023-03-31T11:03:48;94974.84;;;12.18;81.33
11001;BME280;5553;48.506;8.870;2023-03-31T11:06:25;94989.13;;;11.36;83.08
11001;BME280;5553;48.506;8.870;2023-03-31T11:09:05;94998.56;;;11.09;83.00
11001;BME280;5553;48.506;8.870;2023-03-31T11:12:00;95250.25;;;6.61;100.00
11001;BME280;5553;48.506;8.870;2023-03-31T11:14:39;61598.09;;;-144.39;100.00
11001;BME280;5553;48.506;8.870;2023-03-31T11:17:24;61598.09;;;-144.39;100.00
11001;BME280;5553;48.506;8.870;2023-03-31T11:20:04;61598.09;;;-144.39;100.00
11001;BME280;5553;48.506;8.870;2023-03-31T11:22:43;61598.09;;;-144.39;100.00
11001;BME280;5553;48.506;8.870;2023-03-31T11:25:22;61598.09;;;-144.39;100.00
11001;BME280;5553;48.506;8.870;2023-03-31T11:28:18;61598.09;;;-144.39;100.00
11001;BME280;5553;48.506;8.870;2023-03-31T11:30:52;61598.09;;;-144.39;100.00
11001;BME280;5553;48.506;8.870;2023-03-31T11:40:58;61598.09;;;-144.39;100.00
11001;BME280;5553;48.506;8.870;2023-03-31T11:43:33;61598.09;;;-144.39;100.00
11001;BME280;5553;48.506;8.870;2023-03-31T11:46:04;61598.09;;;-144.39;100.00
11001;BME280;5553;48.506;8.870;2023-03-31T11:48:40;61598.09;;;-144.39;100.00
11001;BME280;5553;48.506;8.870;2023-03-31T11:51:15;61598.09;;;-144.39;100.00
11001;BME280;5553;48.506;8.870;2023-03-31T11:53:45;61598.09;;;-144.39;100.00
11001;BME280;5553;48.506;8.870;2023-03-31T11:56:19;61598.09;;;-144.39;100.00
11001;BME280;5553;48.506;8.870;2023-03-31T11:58:51;61598.09;;;-144.39;100.00
11001;BME280;5553;48.506;8.870;2023-03-31T12:01:24;61598.09;;;-144.39;100.00
11001;BME280;5553;48.506;8.870;2023-03-31T12:03:57;61598.09;;;-144.39;100.00
11001;BME280;5553;48.506;8.870;2023-03-31T12:06:30;61598.09;;;-144.39;100.00
11001;BME280;5553;48.506;8.870;2023-03-31T12:09:15;61598.09;;;-144.39;100.00
11001;BME280;5553;48.506;8.870;2023-03-31T12:11:51;61598.09;;;-144.39;100.00
11001;BME280;5553;48.506;8.870;2023-03-31T12:14:28;61598.09;;;-144.39;100.00
11001;BME280;5553;48.506;8.870;2023-03-31T12:17:02;61598.09;;;-144.39;100.00
11001;BME280;5553;48.506;8.870;2023-03-31T12:19:35;61598.09;;;-144.39;100.00
11001;BME280;5553;48.506;8.870;2023-03-31T18:23:38;95173.25;;;7.55;100.00
11001;BME280;5553;48.506;8.870;2023-03-31T18:26:08;95180.91;;;7.64;100.00
11001;BME280;5553;48.506;8.870;2023-03-31T18:28:37;95180.13;;;7.63;100.00
11001;BME280;5553;48.506;8.870;2023-03-31T18:31:07;95166.38;;;7.54;100.00
11001;BME280;5553;48.506;8.870;2023-03-31T18:33:35;95175.66;;;7.70;100.00
11001;BME280;5553;48.506;8.870;2023-03-31T18:36:04;95182.13;;;7.61;100.00
11001;BME280;5553;48.506;8.870;2023-03-31T18:38:33;95185.16;;;7.51;100.00
11001;BME280;5553;48.506;8.870;2023-03-31T18:41:04;95177.50;;;7.56;100.00
11001;BME280;5553;48.506;8.870;2023-03-31T18:43:33;95178.94;;;7.52;100.00
11001;BME280;5553;48.506;8.870;2023-03-31T18:46:01;95173.28;;;7.49;100.00
11001;BME280;5553;48.506;8.870;2023-03-31T18:48:30;95175.69;;;7.44;100.00
11001;BME280;5553;48.506;8.870;2023-03-31T18:50:59;95185.16;;;7.38;100.00
11001;BME280;5553;48.506;8.870;2023-03-31T18:53:29;95185.38;;;7.43;100.00
11001;BME280;5553;48.506;8.870;2023-03-31T18:55:57;95180.53;;;7.33;100.00
11001;BME280;5553;48.506;8.870;2023-03-31T18:58:29;95186.59;;;7.41;100.00
11001;BME280;5553;48.506;8.870;2023-03-31T19:00:58;95189.44;;;7.39;100.00
11001;BME280;5553;48.506;8.870;2023-03-31T19:03:27;95187.22;;;7.43;100.00
11001;BME280;5553;48.506;8.870;2023-03-31T19:06:00;95185.56;;;7.48;100.00
11001;BME280;5553;48.506;8.870;2023-03-31T19:08:29;95186.16;;;7.64;100.00
11001;BME280;5553;48.506;8.870;2023-03-31T19:11:03;95174.47;;;7.66;100.00
11001;BME280;5553;48.506;8.870;2023-03-31T19:13:34;95172.84;;;7.58;100.00
11001;BME280;5553;48.506;8.870;2023-03-31T19:16:03;95172.25;;;7.56;100.00
11001;BME280;5553;48.506;8.870;2023-03-31T19:18:32;95175.66;;;7.64;100.00
11001;BME280;5553;48.506;8.870;2023-03-31T19:21:01;95185.38;;;7.43;100.00
11001;BME280;5553;48.506;8.870;2023-03-31T19:23:30;95178.53;;;7.42;100.00
11001;BME280;5553;48.506;8.870;2023-03-31T19:25:58;95186.59;;;7.34;100.00
11001;BME280;5553;48.506;8.870;2023-03-31T19:28:27;95196.91;;;7.42;100.00
11001;BME280;5553;48.506;8.870;2023-03-31T19:31:02;95193.66;;;7.33;100.00
11001;BME280;5553;48.506;8.870;2023-03-31T19:33:30;95193.25;;;7.30;100.00
11001;BME280;5553;48.506;8.870;2023-03-31T19:35:59;95199.94;;;7.39;100.00
11001;BME280;5553;48.506;8.870;2023-03-31T19:38:27;95203.13;;;7.41;100.00
11001;BME280;5553;48.506;8.870;2023-03-31T19:40:56;95188.59;;;7.45;100.00
11001;BME280;5553;48.506;8.870;2023-03-31T19:43:25;95193.84;;;7.45;100.00
11001;BME280;5553;48.506;8.870;2023-03-31T19:45:53;95190.25;;;7.33;100.00
11001;BME280;5553;48.506;8.870;2023-03-31T19:48:25;95187.00;;;7.38;100.00
11001;BME280;5553;48.506;8.870;2023-03-31T19:50:57;95181.56;;;7.39;100.00
11001;BME280;5553;48.506;8.870;2023-03-31T19:53:28;95186.00;;;7.39;100.00
11001;BME280;5553;48.506;8.870;2023-03-31T19:55:57;95174.91;;;7.36;100.00
11001;BME280;5553;48.506;8.870;2023-03-31T19:58:27;95181.34;;;7.34;100.00